Terminal Aerodrome Forecast
Issued by NWS

Home | Current Version | Previous Version | Text Only | Print | Product List | Glossary On
Versions: 1 2 3 4 5 6 7 8 9 10 11 12 13
000
FTUS45 KBOU 241134
TAFBJC
TAF
KBJC 241134Z 2412/2512 VRB04KT P6SM FEW200
     FM242100 04008KT P6SM FEW100 BKN150
     FM250200 VRB05KT P6SM BKN150
     FM250500 25007KT P6SM FEW150=

USA.gov is the U.S. government's official web portal to all federal, state and local government web resources and services.